Time;durP1;ratioP1;P1;durP2;ratioP2;P2;SDS_P1;SDS_P2;PMS_P1;PMS_P2;Temp;Humidity;BMP_temperature;BMP_pressure;BME280_temperature;BME280_humidity;BME280_pressure;Samples;Min_cycle;Max_cycle;Signal;HPM_P1;HPM_P2
2023/12/07 00:01:11;;;;;;;5.15;1.65;;;2.70;99.90;;;;;;5099124;28;20040;-79
2023/12/07 00:03:37;;;;;;;3.65;1.80;;;2.70;99.90;;;;;;5090141;28;20066;-79
2023/12/07 00:06:02;;;;;;;5.18;1.80;;;2.60;99.90;;;;;;5104208;28;20061;-78
2023/12/07 00:08:28;;;;;;;3.53;1.05;;;2.60;99.90;;;;;;5106652;28;20048;-78
2023/12/07 00:10:54;;;;;;;5.65;2.28;;;2.70;99.90;;;;;;5087330;28;20055;-78
2023/12/07 00:13:20;;;;;;;3.45;2.17;;;2.70;99.90;;;;;;5076134;28;20107;-78
2023/12/07 00:15:45;;;;;;;3.05;1.58;;;2.70;99.90;;;;;;5099420;28;20043;-77
2023/12/07 00:18:11;;;;;;;3.38;1.60;;;2.70;99.90;;;;;;5097052;28;20455;-79
2023/12/07 00:20:36;;;;;;;3.80;1.60;;;2.80;99.90;;;;;;5096537;28;20546;-79
2023/12/07 00:23:02;;;;;;;2.42;1.05;;;2.70;99.90;;;;;;5092594;28;20072;-79
2023/12/07 00:25:28;;;;;;;2.00;1.20;;;2.80;99.90;;;;;;5095033;28;20516;-79
2023/12/07 00:27:54;;;;;;;3.25;1.65;;;2.80;99.90;;;;;;5079413;28;20043;-79
2023/12/07 00:30:20;;;;;;;2.60;1.23;;;2.80;99.90;;;;;;5073472;28;20042;-79
2023/12/07 00:32:46;;;;;;;2.88;1.73;;;2.80;99.90;;;;;;5074031;28;20194;-79
2023/12/07 00:35:12;;;;;;;3.08;1.45;;;2.80;99.90;;;;;;5093816;28;20544;-79
2023/12/07 00:37:38;;;;;;;2.08;1.30;;;2.80;99.90;;;;;;5087178;28;20162;-79
2023/12/07 00:40:04;;;;;;;3.60;1.85;;;2.80;99.90;;;;;;5102381;28;20127;-79
2023/12/07 00:42:30;;;;;;;6.85;2.40;;;2.80;99.90;;;;;;5067833;28;20035;-79
2023/12/07 00:44:56;;;;;;;1.92;1.58;;;2.70;99.90;;;;;;5071536;28;20498;-79
2023/12/07 00:47:22;;;;;;;3.95;1.55;;;2.80;99.90;;;;;;5097411;28;20170;-79
2023/12/07 00:49:48;;;;;;;2.13;1.63;;;2.90;99.90;;;;;;5071495;28;20028;-79
2023/12/07 00:52:14;;;;;;;2.75;1.20;;;2.80;99.90;;;;;;5085462;28;20482;-79
2023/12/07 00:54:40;;;;;;;2.15;1.35;;;2.80;99.90;;;;;;5079539;28;20035;-79
2023/12/07 00:57:06;;;;;;;3.47;2.67;;;2.80;99.90;;;;;;5099101;28;20039;-79
2023/12/07 00:59:33;;;;;;;2.70;1.33;;;2.80;99.90;;;;;;5078471;28;20032;-79
2023/12/07 01:02:08;;;;;;;4.30;1.67;;;2.80;99.90;;;;;;5096506;28;20397;-79
2023/12/07 01:04:34;;;;;;;2.13;1.15;;;2.80;99.90;;;;;;5073590;28;20034;-79
2023/12/07 01:06:59;;;;;;;3.03;1.40;;;2.80;99.90;;;;;;5072234;28;20028;-79
2023/12/07 01:09:26;;;;;;;8.68;1.60;;;2.80;99.90;;;;;;5085396;28;20091;-79
2023/12/07 01:11:51;;;;;;;4.22;1.65;;;2.80;99.90;;;;;;5091729;28;20035;-79
2023/12/07 01:14:18;;;;;;;2.83;1.60;;;2.80;99.90;;;;;;5090521;28;20401;-79
2023/12/07 01:16:44;;;;;;;2.25;0.90;;;2.80;99.90;;;;;;5097769;28;20040;-79
2023/12/07 01:19:13;;;;;;;2.78;1.40;;;2.80;99.90;;;;;;5073767;28;20048;-79
2023/12/07 01:21:40;;;;;;;3.35;1.40;;;2.80;99.90;;;;;;5090339;28;20118;-79
2023/12/07 01:24:05;;;;;;;1.73;1.15;;;2.80;99.90;;;;;;5087211;28;20027;-79
2023/12/07 01:26:32;;;;;;;3.10;1.40;;;2.80;99.90;;;;;;5072155;28;20396;-79
2023/12/07 01:28:57;;;;;;;3.80;1.73;;;2.80;99.90;;;;;;5092959;28;20451;-79
2023/12/07 01:31:23;;;;;;;2.25;1.35;;;2.80;99.90;;;;;;5072863;28;20126;-79
2023/12/07 01:33:49;;;;;;;2.65;1.08;;;2.80;99.90;;;;;;5079835;28;20077;-79
2023/12/07 01:36:14;;;;;;;3.08;1.30;;;2.80;99.90;;;;;;5071528;28;20039;-79
2023/12/07 01:38:40;;;;;;;2.53;1.50;;;2.80;99.90;;;;;;5079561;28;20097;-79
2023/12/07 01:41:06;;;;;;;3.65;1.60;;;2.80;99.90;;;;;;5088026;28;20028;-79
2023/12/07 01:43:31;;;;;;;2.35;1.40;;;2.80;99.90;;;;;;5089917;28;20047;-79
2023/12/07 01:45:58;;;;;;;4.47;1.77;;;2.80;99.90;;;;;;5075299;28;20043;-79
2023/12/07 01:48:28;;;;;;;4.45;1.60;;;2.80;99.90;;;;;;5074129;28;20036;-79
2023/12/07 01:50:56;;;;;;;2.00;1.50;;;2.80;99.90;;;;;;5076982;28;20044;-79
2023/12/07 01:53:23;;;;;;;2.30;1.25;;;2.90;99.90;;;;;;5097947;28;20051;-79
2023/12/07 01:55:50;;;;;;;4.75;2.17;;;2.90;99.90;;;;;;5100273;28;20139;-79
2023/12/07 01:58:18;;;;;;;3.47;1.77;;;2.90;99.90;;;;;;5078869;28;20200;-79
2023/12/07 02:00:44;;;;;;;2.85;0.95;;;2.90;99.90;;;;;;5079012;28;20032;-79
2023/12/07 02:03:11;;;;;;;1.15;0.68;;;2.90;99.90;;;;;;5078737;28;20048;-79
2023/12/07 02:05:37;;;;;;;3.03;1.63;;;2.90;99.90;;;;;;5105325;28;20736;-79
2023/12/07 02:08:03;;;;;;;3.40;1.45;;;2.90;99.90;;;;;;5105182;28;20269;-79
2023/12/07 02:10:29;;;;;;;2.50;1.50;;;2.80;99.90;;;;;;5079397;28;20052;-79
2023/12/07 02:12:54;;;;;;;2.42;1.40;;;2.90;99.90;;;;;;5100923;28;20036;-79
2023/12/07 02:15:20;;;;;;;7.38;1.63;;;2.90;99.90;;;;;;5079290;28;20067;-79
2023/12/07 02:17:58;;;;;;;2.58;1.48;;;2.90;99.90;;;;;;5097014;28;20060;-79
2023/12/07 02:20:34;;;;;;;4.43;1.80;;;2.90;99.90;;;;;;5094418;28;20044;-79
2023/12/07 02:23:03;;;;;;;5.22;1.98;;;2.80;99.90;;;;;;5092071;28;20036;-79
2023/12/07 02:25:50;;;;;;;3.08;1.30;;;2.80;99.90;;;;;;5092966;28;20044;-79
2023/12/07 02:28:17;;;;;;;3.15;1.23;;;2.80;99.90;;;;;;5099251;28;20044;-79
2023/12/07 02:30:43;;;;;;;5.63;1.67;;;2.80;99.90;;;;;;5094948;28;20489;-79
2023/12/07 02:33:08;;;;;;;5.72;2.88;;;2.80;99.90;;;;;;5103104;28;20064;-79
2023/12/07 02:35:35;;;;;;;5.57;1.75;;;2.80;99.90;;;;;;5076088;28;20066;-79
2023/12/07 02:38:02;;;;;;;2.38;0.98;;;2.80;99.90;;;;;;5086947;28;20040;-79
2023/12/07 02:40:29;;;;;;;4.32;2.22;;;2.80;99.90;;;;;;5088115;28;20505;-79
2023/12/07 02:42:56;;;;;;;2.53;1.80;;;2.80;99.90;;;;;;5073229;28;20036;-79
2023/12/07 02:45:22;;;;;;;3.10;1.65;;;2.70;99.90;;;;;;5106673;28;20119;-79
2023/12/07 02:47:48;;;;;;;4.07;2.38;;;2.70;99.90;;;;;;5104744;28;20131;-79
2023/12/07 02:50:14;;;;;;;4.55;2.00;;;2.70;99.90;;;;;;5090639;28;20462;-79
2023/12/07 02:52:40;;;;;;;5.70;2.42;;;2.70;99.90;;;;;;5092485;28;20398;-79
2023/12/07 02:55:07;;;;;;;4.20;2.25;;;2.60;99.90;;;;;;5078147;28;20035;-79
2023/12/07 02:57:36;;;;;;;6.35;2.75;;;2.70;99.90;;;;;;5096032;28;20066;-79
2023/12/07 03:00:08;;;;;;;5.05;1.40;;;2.60;99.90;;;;;;5086505;28;20058;-79
2023/12/07 03:02:35;;;;;;;2.80;1.17;;;2.60;99.90;;;;;;5085198;28;20032;-79
2023/12/07 03:05:01;;;;;;;2.33;1.70;;;2.60;99.90;;;;;;5082909;28;20036;-79
2023/12/07 03:07:27;;;;;;;6.13;2.88;;;2.60;99.90;;;;;;5073007;28;20081;-79
2023/12/07 03:09:52;;;;;;;5.25;1.83;;;2.60;99.90;;;;;;5093968;28;20059;-79
2023/12/07 03:12:18;;;;;;;5.10;2.53;;;2.60;99.90;;;;;;5086921;28;20194;-79
2023/12/07 03:14:43;;;;;;;8.35;2.40;;;2.70;99.90;;;;;;5078122;28;20037;-79
2023/12/07 03:17:09;;;;;;;3.60;1.80;;;2.50;99.90;;;;;;5078627;28;20028;-79
2023/12/07 03:19:39;;;;;;;5.18;1.95;;;2.50;99.90;;;;;;5101193;28;20040;-79
2023/12/07 03:22:06;;;;;;;4.25;2.40;;;2.60;99.90;;;;;;5099001;28;20032;-79
2023/12/07 03:24:36;;;;;;;14.68;3.33;;;2.50;99.90;;;;;;5093206;28;20047;-79
2023/12/07 03:27:02;;;;;;;5.05;3.10;;;2.60;99.90;;;;;;5079215;28;20052;-79
2023/12/07 03:29:27;;;;;;;3.40;2.25;;;2.50;99.90;;;;;;5077903;28;20043;-79
2023/12/07 03:31:53;;;;;;;3.15;1.50;;;2.60;99.90;;;;;;5076494;28;20413;-80
2023/12/07 03:34:18;;;;;;;4.07;2.03;;;2.50;99.90;;;;;;5095030;28;20576;-79
2023/12/07 03:36:48;;;;;;;6.32;3.00;;;2.50;99.90;;;;;;5076163;28;20401;-79
2023/12/07 03:39:14;;;;;;;3.10;2.70;;;2.60;99.90;;;;;;5098342;28;20137;-79
2023/12/07 03:41:40;;;;;;;6.15;2.65;;;2.60;99.90;;;;;;5079728;28;20028;-79
2023/12/07 03:44:06;;;;;;;5.93;2.58;;;2.50;99.90;;;;;;5084316;28;20033;-79
2023/12/07 03:46:31;;;;;;;6.70;3.15;;;2.60;99.90;;;;;;5078316;28;20040;-79
2023/12/07 03:48:57;;;;;;;3.95;2.13;;;2.50;99.90;;;;;;5102594;28;20031;-79
2023/12/07 03:51:23;;;;;;;3.75;2.17;;;2.50;99.90;;;;;;5092114;28;20043;-79
2023/12/07 03:53:49;;;;;;;4.25;2.47;;;2.50;99.90;;;;;;5095552;28;20054;-79
2023/12/07 03:56:30;;;;;;;5.85;2.15;;;2.40;99.90;;;;;;5096955;28;20375;-79
2023/12/07 03:58:57;;;;;;;3.85;2.67;;;2.40;99.90;;;;;;5092833;28;20035;-79
2023/12/07 04:01:24;;;;;;;4.35;1.55;;;2.30;99.90;;;;;;5101091;28;20036;-79
2023/12/07 04:03:51;;;;;;;5.45;2.90;;;2.30;99.90;;;;;;5092881;28;20039;-79
2023/12/07 04:06:16;;;;;;;3.08;2.13;;;2.30;99.90;;;;;;5071036;28;20036;-79
2023/12/07 04:08:42;;;;;;;5.10;2.63;;;2.20;99.90;;;;;;5079485;28;20040;-79
2023/12/07 04:11:08;;;;;;;6.10;2.47;;;2.20;99.90;;;;;;5076988;28;20040;-79
2023/12/07 04:13:34;;;;;;;5.43;2.47;;;2.20;99.90;;;;;;5099432;28;20047;-79
2023/12/07 04:16:00;;;;;;;4.85;2.45;;;2.20;99.90;;;;;;5074279;28;20134;-79
2023/12/07 04:18:25;;;;;;;4.25;2.58;;;2.20;99.90;;;;;;5096257;28;20392;-79
2023/12/07 04:20:51;;;;;;;3.15;1.70;;;2.10;99.90;;;;;;5078869;28;20031;-79
2023/12/07 04:23:17;;;;;;;2.72;1.40;;;2.10;99.90;;;;;;5090915;28;20047;-79
2023/12/07 04:25:42;;;;;;;7.18;2.40;;;2.10;99.90;;;;;;5092424;28;20519;-79
2023/12/07 04:28:08;;;;;;;6.38;2.50;;;2.00;99.90;;;;;;5081332;28;20036;-79
2023/12/07 04:30:33;;;;;;;6.90;2.35;;;2.00;99.90;;;;;;5081535;28;20051;-79
2023/12/07 04:32:59;;;;;;;4.22;1.95;;;2.00;99.90;;;;;;5094747;28;20074;-79
2023/12/07 04:35:25;;;;;;;6.20;2.40;;;2.00;99.90;;;;;;5090925;28;20051;-79
2023/12/07 04:37:50;;;;;;;4.72;1.98;;;2.00;99.90;;;;;;5096905;28;20304;-79
2023/12/07 04:40:16;;;;;;;4.20;2.17;;;2.00;99.90;;;;;;5090600;28;20032;-79
2023/12/07 04:42:42;;;;;;;5.78;3.20;;;2.00;99.90;;;;;;5069807;28;20043;-79
2023/12/07 04:45:08;;;;;;;4.88;2.05;;;1.90;99.90;;;;;;5088468;28;20592;-79
2023/12/07 04:47:33;;;;;;;5.63;3.22;;;2.00;99.90;;;;;;5087433;28;20123;-79
2023/12/07 04:49:59;;;;;;;7.03;2.55;;;2.00;99.90;;;;;;5086773;28;20120;-79
2023/12/07 04:52:25;;;;;;;4.00;2.17;;;1.90;99.90;;;;;;5085693;28;20151;-79
2023/12/07 04:54:51;;;;;;;6.53;1.90;;;1.90;99.90;;;;;;5093876;28;20292;-79
2023/12/07 04:57:16;;;;;;;5.53;2.58;;;2.00;99.90;;;;;;5091690;28;20024;-79
2023/12/07 04:59:46;;;;;;;5.63;3.15;;;1.90;99.90;;;;;;5100938;28;20039;-79
2023/12/07 05:02:14;;;;;;;5.90;2.80;;;1.90;99.90;;;;;;5070333;28;20127;-79
2023/12/07 05:04:39;;;;;;;3.90;2.83;;;2.00;99.90;;;;;;5097787;28;20456;-79
2023/12/07 05:07:06;;;;;;;7.38;3.20;;;1.90;99.90;;;;;;5101077;28;20030;-79
2023/12/07 05:09:32;;;;;;;9.80;4.10;;;1.90;99.90;;;;;;5074814;28;20046;-79
2023/12/07 05:11:58;;;;;;;7.47;2.20;;;1.90;99.90;;;;;;5092263;28;20032;-79
2023/12/07 05:14:24;;;;;;;6.70;2.67;;;1.90;99.90;;;;;;5083725;28;20481;-79
2023/12/07 05:16:52;;;;;;;5.32;2.20;;;1.90;99.90;;;;;;5072341;28;20032;-79
2023/12/07 05:19:25;;;;;;;6.97;3.65;;;1.90;99.90;;;;;;5077479;28;20056;-79
2023/12/07 05:21:51;;;;;;;4.63;2.50;;;1.90;99.90;;;;;;5086685;28;20481;-79
2023/12/07 05:24:17;;;;;;;6.82;3.22;;;1.90;99.90;;;;;;5098461;28;20435;-80
2023/12/07 05:26:45;;;;;;;7.50;2.78;;;1.90;99.90;;;;;;5080510;28;20153;-79
2023/12/07 05:29:12;;;;;;;6.65;1.98;;;1.90;99.90;;;;;;5070705;28;20491;-79
2023/12/07 05:31:38;;;;;;;6.47;2.90;;;1.80;99.90;;;;;;5093549;28;20046;-79
2023/12/07 05:34:03;;;;;;;6.50;3.65;;;1.80;99.90;;;;;;5102053;28;20417;-80
2023/12/07 05:36:29;;;;;;;9.48;4.95;;;1.80;99.90;;;;;;5089585;28;20044;-79
2023/12/07 05:38:55;;;;;;;6.28;3.67;;;1.80;99.90;;;;;;5080464;28;20101;-79
2023/12/07 05:41:30;;;;;;;4.32;2.88;;;1.80;99.90;;;;;;5074696;28;20543;-80
2023/12/07 05:43:56;;;;;;;6.97;2.75;;;1.70;99.90;;;;;;5077255;28;20067;-79
2023/12/07 05:46:22;;;;;;;7.90;2.03;;;1.70;99.90;;;;;;5078184;28;20512;-79
2023/12/07 05:48:47;;;;;;;8.18;3.92;;;1.70;99.90;;;;;;5091276;28;20039;-80
2023/12/07 05:51:14;;;;;;;6.00;3.28;;;1.80;99.90;;;;;;5071546;28;20040;-79
2023/12/07 05:53:41;;;;;;;6.30;2.83;;;1.70;99.90;;;;;;5086260;28;20048;-79
2023/12/07 05:56:07;;;;;;;7.50;4.63;;;1.70;99.90;;;;;;5090432;28;20604;-79
2023/12/07 05:58:32;;;;;;;7.97;4.32;;;1.70;99.90;;;;;;5074542;28;20124;-79
2023/12/07 06:01:00;;;;;;;7.90;3.85;;;1.70;99.90;;;;;;5095487;28;20051;-80
2023/12/07 06:03:25;;;;;;;6.57;2.63;;;1.70;99.90;;;;;;5092287;28;20036;-79
2023/12/07 06:05:51;;;;;;;5.35;3.05;;;1.70;99.90;;;;;;5084345;28;20559;-79
2023/12/07 06:08:17;;;;;;;9.73;3.17;;;1.70;99.90;;;;;;5090607;28;20430;-79
2023/12/07 06:10:43;;;;;;;9.07;3.65;;;1.70;99.90;;;;;;5093628;28;20046;-79
2023/12/07 06:13:10;;;;;;;4.82;3.10;;;1.70;99.90;;;;;;5073484;28;20059;-79
2023/12/07 06:15:36;;;;;;;7.38;3.38;;;1.70;99.90;;;;;;5085268;28;20044;-79
2023/12/07 06:18:01;;;;;;;4.82;2.83;;;1.70;99.90;;;;;;5098489;28;20066;-80
2023/12/07 06:20:27;;;;;;;7.10;3.47;;;1.70;99.90;;;;;;5088436;28;20504;-79
2023/12/07 06:22:53;;;;;;;6.00;2.28;;;1.70;99.90;;;;;;5088236;28;20124;-80
2023/12/07 06:25:18;;;;;;;8.95;2.78;;;1.70;99.90;;;;;;5090911;28;20066;-79
2023/12/07 06:27:44;;;;;;;6.68;3.03;;;1.70;99.90;;;;;;5096156;28;20520;-79
2023/12/07 06:30:10;;;;;;;6.38;3.15;;;1.70;99.90;;;;;;5072008;28;20117;-80
2023/12/07 06:32:36;;;;;;;7.60;3.03;;;1.70;99.90;;;;;;5072836;28;20028;-79
2023/12/07 06:35:04;;;;;;;4.82;2.53;;;1.70;99.90;;;;;;5087511;28;20505;-79
2023/12/07 06:37:30;;;;;;;7.65;4.85;;;1.70;99.90;;;;;;5087119;28;20555;-79
2023/12/07 06:39:56;;;;;;;7.90;2.58;;;1.70;99.90;;;;;;5077623;28;20048;-79
2023/12/07 06:42:21;;;;;;;10.32;4.03;;;1.70;99.90;;;;;;5094114;28;20114;-79
2023/12/07 06:44:49;;;;;;;9.60;3.35;;;1.70;99.90;;;;;;5098142;28;20382;-79
2023/12/07 06:47:15;;;;;;;7.35;3.58;;;1.60;99.90;;;;;;5094336;28;20039;-79
2023/12/07 06:49:41;;;;;;;4.68;3.15;;;1.60;99.90;;;;;;5073574;28;20043;-79
2023/12/07 06:52:07;;;;;;;9.82;3.95;;;1.60;99.90;;;;;;5090458;28;20042;-79
2023/12/07 06:54:33;;;;;;;5.40;3.22;;;1.60;99.90;;;;;;5098215;28;20463;-79
2023/12/07 06:56:59;;;;;;;4.68;2.67;;;1.60;99.90;;;;;;5091749;28;20042;-79
2023/12/07 06:59:25;;;;;;;6.68;3.13;;;1.60;99.90;;;;;;5074670;28;20603;-79
2023/12/07 07:01:51;;;;;;;4.85;2.90;;;1.60;99.90;;;;;;5091687;28;20375;-79
2023/12/07 07:04:16;;;;;;;6.93;4.00;;;1.60;99.90;;;;;;5074903;28;20497;-79
2023/12/07 07:06:42;;;;;;;8.38;4.00;;;1.50;99.90;;;;;;5062217;28;20117;-80
2023/12/07 07:09:08;;;;;;;5.55;2.90;;;1.50;99.90;;;;;;5086736;28;20032;-79
2023/12/07 07:11:34;;;;;;;4.28;2.40;;;1.50;99.90;;;;;;5070757;28;20040;-80
2023/12/07 07:14:00;;;;;;;5.57;2.47;;;1.50;99.90;;;;;;5072515;28;20043;-79
2023/12/07 07:16:26;;;;;;;8.55;3.33;;;1.50;99.90;;;;;;5083914;28;20040;-80
2023/12/07 07:18:52;;;;;;;6.10;3.35;;;1.50;99.90;;;;;;5098712;28;20046;-79
2023/12/07 07:21:19;;;;;;;4.68;2.65;;;1.50;99.90;;;;;;5094031;28;20036;-79
2023/12/07 07:23:45;;;;;;;9.88;4.78;;;1.50;99.90;;;;;;5089762;28;20036;-79
2023/12/07 07:26:11;;;;;;;7.72;3.13;;;1.40;99.90;;;;;;5071007;28;20105;-79
2023/12/07 07:28:37;;;;;;;6.38;2.72;;;1.50;99.90;;;;;;5078890;28;20677;-80
2023/12/07 07:31:03;;;;;;;8.02;4.05;;;1.50;99.90;;;;;;5071452;28;20040;-79
2023/12/07 07:33:28;;;;;;;8.07;4.28;;;1.50;99.90;;;;;;5083599;28;20109;-79
2023/12/07 07:35:55;;;;;;;7.22;4.15;;;1.50;99.90;;;;;;5088303;28;20061;-79
2023/12/07 07:38:21;;;;;;;9.15;4.95;;;1.50;99.90;;;;;;5076173;28;20036;-79
2023/12/07 07:40:48;;;;;;;11.52;4.15;;;1.60;99.90;;;;;;5083612;28;20090;-79
2023/12/07 07:43:14;;;;;;;8.95;4.70;;;1.50;99.90;;;;;;5100639;28;20533;-79
2023/12/07 07:45:40;;;;;;;14.55;6.70;;;1.50;99.90;;;;;;5080400;28;20032;-78
2023/12/07 07:48:05;;;;;;;12.68;6.75;;;1.60;99.90;;;;;;5083493;28;20085;-79
2023/12/07 07:50:31;;;;;;;48.72;20.48;;;1.60;99.90;;;;;;5078150;28;20044;-79
2023/12/07 07:52:57;;;;;;;25.30;12.07;;;1.60;99.90;;;;;;5088491;28;20032;-79
2023/12/07 07:55:23;;;;;;;11.20;4.85;;;1.60;99.90;;;;;;5087204;28;20324;-78
2023/12/07 07:57:48;;;;;;;10.07;4.97;;;1.60;99.90;;;;;;5088988;28;20040;-78
2023/12/07 08:00:14;;;;;;;7.47;3.97;;;1.60;99.90;;;;;;5083659;28;20036;-78
2023/12/07 08:02:40;;;;;;;8.93;5.07;;;1.70;99.90;;;;;;5081173;28;20054;-79
2023/12/07 08:05:06;;;;;;;9.63;4.72;;;1.70;99.90;;;;;;5099360;28;20039;-78
2023/12/07 08:07:32;;;;;;;8.38;3.17;;;1.70;99.90;;;;;;5068902;28;20028;-78
2023/12/07 08:09:57;;;;;;;4.70;3.83;;;1.70;99.90;;;;;;5071922;28;20035;-78
2023/12/07 08:12:23;;;;;;;6.72;3.88;;;1.70;99.90;;;;;;5071936;28;20040;-78
2023/12/07 08:14:49;;;;;;;7.18;3.47;;;1.70;99.90;;;;;;5078726;28;20096;-79
2023/12/07 08:17:15;;;;;;;7.03;3.75;;;1.70;99.90;;;;;;5082739;28;20132;-79
2023/12/07 08:19:44;;;;;;;6.82;2.80;;;1.70;99.90;;;;;;5071838;28;20081;-79
2023/12/07 08:22:10;;;;;;;7.68;4.50;;;1.70;99.90;;;;;;5066688;28;20039;-79
2023/12/07 08:24:38;;;;;;;6.70;4.55;;;1.70;99.90;;;;;;5078484;28;20032;-78
2023/12/07 08:27:04;;;;;;;5.50;3.35;;;1.70;99.90;;;;;;5092068;28;20035;-79
2023/12/07 08:29:30;;;;;;;12.88;3.20;;;1.70;99.90;;;;;;5105734;28;20040;-79
2023/12/07 08:31:56;;;;;;;9.05;4.50;;;1.80;99.90;;;;;;5071652;28;20510;-79
2023/12/07 08:34:21;;;;;;;9.23;3.15;;;1.70;99.90;;;;;;5085178;28;20101;-79
2023/12/07 08:36:47;;;;;;;12.75;3.55;;;1.80;99.90;;;;;;5096395;28;20040;-79
2023/12/07 08:39:13;;;;;;;7.45;4.25;;;1.80;99.90;;;;;;5088861;28;20040;-79
2023/12/07 08:41:39;;;;;;;4.97;3.15;;;1.80;99.90;;;;;;5071870;28;20028;-79
2023/12/07 08:44:05;;;;;;;5.68;3.75;;;1.80;99.90;;;;;;5067213;28;20437;-79
2023/12/07 08:46:30;;;;;;;7.18;2.90;;;1.80;99.90;;;;;;5084244;28;20090;-79
2023/12/07 08:48:56;;;;;;;6.93;3.38;;;1.80;99.90;;;;;;5088761;28;20071;-80
2023/12/07 08:51:23;;;;;;;5.78;3.67;;;1.80;99.90;;;;;;5086768;28;20158;-80
2023/12/07 08:53:49;;;;;;;6.30;3.15;;;1.80;99.90;;;;;;5086399;28;20346;-79
2023/12/07 08:56:15;;;;;;;8.15;3.40;;;1.80;99.90;;;;;;5104019;28;20046;-80
2023/12/07 08:58:41;;;;;;;7.78;3.58;;;1.80;99.90;;;;;;5071315;28;20036;-79
2023/12/07 09:01:06;;;;;;;10.35;4.53;;;1.90;99.90;;;;;;5088295;28;20068;-79
2023/12/07 09:03:33;;;;;;;13.45;4.72;;;1.90;99.90;;;;;;5072512;28;20068;-80
2023/12/07 09:06:00;;;;;;;8.73;4.28;;;1.90;99.90;;;;;;5076006;28;20040;-79
2023/12/07 09:08:25;;;;;;;11.55;5.30;;;1.90;99.90;;;;;;5090281;28;20039;-80
2023/12/07 09:10:51;;;;;;;6.85;3.47;;;1.80;99.90;;;;;;5070146;28;20110;-79
2023/12/07 09:13:18;;;;;;;4.55;3.25;;;1.80;99.90;;;;;;5105573;28;20040;-80
2023/12/07 09:15:43;;;;;;;9.85;4.00;;;1.80;99.90;;;;;;5099462;28;20039;-80
2023/12/07 09:18:10;;;;;;;10.35;4.55;;;1.80;99.90;;;;;;5071776;28;20050;-80
2023/12/07 09:20:37;;;;;;;8.48;3.85;;;1.80;99.90;;;;;;5104798;28;20116;-80
2023/12/07 09:23:03;;;;;;;5.75;3.38;;;1.80;99.90;;;;;;5069669;28;20044;-80
2023/12/07 09:25:30;;;;;;;8.43;3.78;;;1.80;99.90;;;;;;5101793;28;20024;-79
2023/12/07 09:27:56;;;;;;;7.00;3.78;;;1.80;99.90;;;;;;5103347;28;20044;-80
2023/12/07 09:30:22;;;;;;;7.40;3.15;;;1.80;99.90;;;;;;5070843;28;20047;-80
2023/12/07 09:32:47;;;;;;;11.85;4.03;;;1.80;99.90;;;;;;5087278;28;20044;-80
2023/12/07 09:35:15;;;;;;;9.43;5.00;;;1.80;99.90;;;;;;5068446;28;20111;-80
2023/12/07 09:37:40;;;;;;;6.88;3.83;;;1.80;99.90;;;;;;5084719;28;20036;-80
2023/12/07 09:40:07;;;;;;;5.95;2.88;;;1.80;99.90;;;;;;5099711;28;20093;-80
2023/12/07 09:42:33;;;;;;;8.30;3.08;;;1.80;99.90;;;;;;5090608;28;20027;-80
2023/12/07 09:44:59;;;;;;;9.68;3.97;;;1.80;99.90;;;;;;5096137;28;20444;-80
2023/12/07 09:47:28;;;;;;;7.68;4.25;;;1.80;99.90;;;;;;5075328;28;20031;-80
2023/12/07 09:49:54;;;;;;;4.22;2.45;;;1.80;99.90;;;;;;5070018;28;20032;-80
2023/12/07 09:52:22;;;;;;;9.18;4.65;;;1.80;99.90;;;;;;5078710;28;20089;-79
2023/12/07 09:54:50;;;;;;;8.98;4.40;;;1.90;99.90;;;;;;5088986;28;20110;-80
2023/12/07 09:57:16;;;;;;;7.07;3.15;;;1.90;99.90;;;;;;5079789;28;20043;-79
2023/12/07 09:59:41;;;;;;;5.13;3.33;;;1.90;99.90;;;;;;5076438;28;20036;-79
2023/12/07 10:02:10;;;;;;;4.75;3.50;;;1.90;99.90;;;;;;5090419;28;20560;-79
2023/12/07 10:04:36;;;;;;;7.43;3.17;;;2.00;99.90;;;;;;5082274;28;20052;-79
2023/12/07 10:07:02;;;;;;;7.78;3.65;;;2.00;99.90;;;;;;5069776;28;20035;-78
2023/12/07 10:09:28;;;;;;;10.68;4.63;;;1.90;99.90;;;;;;5086370;28;20512;-79
2023/12/07 10:12:04;;;;;;;6.28;3.40;;;2.00;99.90;;;;;;5091195;28;20115;-79
2023/12/07 10:14:30;;;;;;;5.43;2.70;;;2.00;99.90;;;;;;5085051;28;20300;-79
2023/12/07 10:16:56;;;;;;;5.57;3.00;;;2.00;99.90;;;;;;5098713;28;20276;-79
2023/12/07 10:19:23;;;;;;;13.02;5.68;;;2.00;99.90;;;;;;5105472;28;20442;-78
2023/12/07 10:21:52;;;;;;;6.25;3.85;;;2.00;99.90;;;;;;5068426;28;20040;-78
2023/12/07 10:24:22;;;;;;;7.72;3.55;;;2.00;99.90;;;;;;5069982;28;20128;-79
2023/12/07 10:26:49;;;;;;;8.48;3.88;;;2.00;99.90;;;;;;5090290;28;20047;-79
2023/12/07 10:29:18;;;;;;;8.05;3.38;;;2.00;99.90;;;;;;5091879;28;20074;-79
2023/12/07 10:31:44;;;;;;;9.48;3.50;;;2.00;99.90;;;;;;5075677;28;20550;-79
2023/12/07 10:34:09;;;;;;;5.45;3.13;;;2.00;99.90;;;;;;5081985;28;20127;-79
2023/12/07 10:36:35;;;;;;;5.35;3.05;;;2.00;99.90;;;;;;5086935;28;21469;-80
2023/12/07 10:39:06;;;;;;;8.80;3.53;;;1.90;99.90;;;;;;5086072;28;20032;-76
2023/12/07 10:41:33;;;;;;;6.82;2.47;;;1.90;99.90;;;;;;5093638;28;20040;-79
2023/12/07 10:44:06;;;;;;;5.93;3.20;;;1.90;99.90;;;;;;5094737;28;20035;-80
2023/12/07 10:46:34;;;;;;;6.50;2.95;;;1.90;99.90;;;;;;5066505;28;20119;-80
2023/12/07 10:49:03;;;;;;;7.70;3.53;;;1.90;99.90;;;;;;5070170;28;20036;-82
2023/12/07 10:51:41;;;;;;;6.20;2.45;;;1.90;99.90;;;;;;5088381;28;20509;-82
2023/12/07 10:54:08;;;;;;;4.22;2.67;;;1.90;99.90;;;;;;5083143;28;20419;-78
2023/12/07 10:56:44;;;;;;;6.88;4.05;;;1.90;99.90;;;;;;5084878;28;20031;-81
2023/12/07 10:59:12;;;;;;;5.97;2.20;;;1.90;99.90;;;;;;5081866;28;20123;-80
2023/12/07 11:01:43;;;;;;;5.38;2.40;;;1.90;99.90;;;;;;5089443;28;20082;-79
2023/12/07 11:04:13;;;;;;;5.88;2.53;;;1.90;99.90;;;;;;5075747;28;20043;-79
2023/12/07 11:06:46;;;;;;;5.63;3.13;;;1.90;99.90;;;;;;5098328;28;20448;-79
2023/12/07 11:09:25;;;;;;;4.25;2.70;;;1.90;99.90;;;;;;5085756;28;20051;-81
2023/12/07 11:12:16;;;;;;;7.22;2.80;;;1.90;99.90;;;;;;5074051;28;20044;-79
2023/12/07 11:14:42;;;;;;;11.00;4.63;;;1.90;99.90;;;;;;5070824;28;20036;-79
2023/12/07 11:17:08;;;;;;;7.20;3.35;;;1.90;99.90;;;;;;5088921;28;20042;-80
2023/12/07 11:19:36;;;;;;;7.40;3.78;;;1.90;99.90;;;;;;5099895;28;20039;-79
2023/12/07 11:22:04;;;;;;;5.28;2.92;;;1.90;99.90;;;;;;5084923;28;20039;-79
2023/12/07 11:24:30;;;;;;;5.82;3.80;;;1.90;99.90;;;;;;5077382;28;20434;-79
2023/12/07 11:26:56;;;;;;;7.28;3.88;;;1.90;99.90;;;;;;5076387;28;20028;-79
2023/12/07 11:29:24;;;;;;;5.78;3.38;;;1.90;99.90;;;;;;5091677;28;20123;-79
2023/12/07 11:32:11;;;;;;;8.95;5.00;;;1.90;99.90;;;;;;5086308;28;20036;-79
2023/12/07 11:34:39;;;;;;;5.78;3.63;;;1.90;99.90;;;;;;5070020;28;20051;-80
2023/12/07 11:37:05;;;;;;;6.85;3.42;;;1.90;99.90;;;;;;5092865;28;20394;-79
2023/12/07 11:39:46;;;;;;;7.95;3.85;;;1.90;99.90;;;;;;5102063;28;20044;-79
2023/12/07 11:42:17;;;;;;;7.47;3.28;;;1.90;99.90;;;;;;5090865;28;20056;-80
2023/12/07 11:44:46;;;;;;;9.18;3.28;;;1.90;99.90;;;;;;5087744;28;20149;-79
2023/12/07 11:47:20;;;;;;;5.57;4.07;;;1.90;99.90;;;;;;5092354;28;20071;-80
2023/12/07 11:49:46;;;;;;;13.85;4.22;;;1.90;99.90;;;;;;5093983;28;20035;-80
2023/12/07 11:52:19;;;;;;;8.32;3.75;;;1.90;99.90;;;;;;5082656;28;20039;-80
2023/12/07 11:54:46;;;;;;;10.93;3.25;;;2.00;99.90;;;;;;5076942;28;20532;-80
2023/12/07 11:57:13;;;;;;;6.75;3.60;;;2.00;99.90;;;;;;5082026;28;20044;-80
2023/12/07 11:59:38;;;;;;;9.50;4.60;;;2.00;99.90;;;;;;5077902;28;20032;-80
2023/12/07 12:02:04;;;;;;;8.07;3.30;;;2.00;99.90;;;;;;5070638;28;20473;-80
2023/12/07 12:04:30;;;;;;;4.80;2.58;;;2.00;99.90;;;;;;5094791;28;20077;-80
2023/12/07 12:06:56;;;;;;;8.55;4.20;;;2.00;99.90;;;;;;5083211;28;20557;-80
2023/12/07 12:09:24;;;;;;;8.50;3.13;;;2.00;99.90;;;;;;5086065;28;20119;-79
2023/12/07 12:11:50;;;;;;;8.00;3.30;;;2.00;99.90;;;;;;5083621;28;20051;-80
2023/12/07 12:14:19;;;;;;;5.43;2.42;;;2.00;99.90;;;;;;5065378;28;20036;-79
2023/12/07 12:16:46;;;;;;;7.53;3.75;;;2.00;99.90;;;;;;5078186;22;22165;-79
2023/12/07 12:19:14;;;;;;;10.05;3.90;;;2.00;99.90;;;;;;5033727;28;20041;-79
2023/12/07 12:21:40;;;;;;;9.25;3.22;;;2.10;99.90;;;;;;5023263;28;20068;-79
2023/12/07 12:24:10;;;;;;;6.20;3.13;;;2.10;99.90;;;;;;5033997;28;20454;-79
2023/12/07 12:26:39;;;;;;;7.72;3.67;;;2.10;99.90;;;;;;5027101;28;20084;-79
2023/12/07 12:29:06;;;;;;;7.20;3.47;;;2.10;99.90;;;;;;5011565;28;20037;-79
2023/12/07 12:31:32;;;;;;;9.45;4.10;;;2.10;99.90;;;;;;5026736;28;20056;-79
2023/12/07 12:34:00;;;;;;;4.45;3.00;;;2.10;99.90;;;;;;5011308;28;20461;-79
2023/12/07 12:36:28;;;;;;;10.13;3.80;;;2.10;99.90;;;;;;5027151;28;20556;-79
2023/12/07 12:38:55;;;;;;;10.55;3.75;;;2.10;99.90;;;;;;5018249;28;20046;-79
2023/12/07 12:41:22;;;;;;;8.43;3.40;;;2.10;99.90;;;;;;5025298;28;20081;-79
2023/12/07 12:43:48;;;;;;;7.18;2.88;;;2.00;99.90;;;;;;5011696;28;20185;-79
2023/12/07 12:46:16;;;;;;;5.82;3.47;;;2.10;99.90;;;;;;5006538;28;20527;-79
2023/12/07 12:48:59;;;;;;;6.13;2.92;;;2.00;99.90;;;;;;5007937;28;20037;-79
2023/12/07 12:51:31;;;;;;;5.72;3.65;;;2.10;99.90;;;;;;4994419;28;20052;-79
2023/12/07 12:53:59;;;;;;;7.85;4.88;;;2.10;99.90;;;;;;5022864;28;20124;-79